createdAt,value
2023-02-09T00:01:00.347Z,11.77
2023-02-09T00:03:03.085Z,13.57
2023-02-09T00:05:06.367Z,13.13
2023-02-09T00:07:09.058Z,14.50
2023-02-09T00:09:11.927Z,12.27
2023-02-09T00:11:46.872Z,14.37
2023-02-09T00:13:49.499Z,13.47
2023-02-09T00:15:58.069Z,12.43
2023-02-09T00:18:00.731Z,14.23
2023-02-09T00:20:05.553Z,13.57
2023-02-09T00:22:08.320Z,14.20
2023-02-09T00:24:11.916Z,12.83
2023-02-09T00:26:14.490Z,11.80
2023-02-09T00:28:17.347Z,13.60
2023-02-09T00:30:20.267Z,12.03
2023-02-09T00:32:22.989Z,13.03
2023-02-09T00:34:25.651Z,10.90
2023-02-09T00:36:28.862Z,11.20
2023-02-09T00:38:31.671Z,10.37
2023-02-09T00:40:34.459Z,14.47
2023-02-09T00:42:37.100Z,12.17
2023-02-09T00:44:40.546Z,15.57
2023-02-09T00:46:43.441Z,14.30
2023-02-09T00:48:46.129Z,12.90
2023-02-09T00:50:51.109Z,10.80
2023-02-09T00:52:54.106Z,13.43
2023-02-09T00:54:56.775Z,15.00
2023-02-09T00:57:05.395Z,12.57
2023-02-09T00:59:08.122Z,13.40
2023-02-09T01:01:13.705Z,14.20
2023-02-09T01:03:16.600Z,10.70
2023-02-09T01:05:19.297Z,11.47
2023-02-09T01:07:21.945Z,13.73
2023-02-09T01:09:26.121Z,13.10
2023-02-09T01:11:30.020Z,9.63
2023-02-09T01:13:32.617Z,15.93
2023-02-09T01:15:35.302Z,7.83
2023-02-09T01:17:38.743Z,9.90
2023-02-09T01:19:41.558Z,13.03
2023-02-09T01:21:44.207Z,10.83
2023-02-09T01:23:47.944Z,15.37
2023-02-09T01:25:50.639Z,13.53
2023-02-09T01:27:53.404Z,13.43
2023-02-09T01:29:56.104Z,12.83
2023-02-09T01:31:58.806Z,14.07
2023-02-09T01:34:03.906Z,14.47
2023-02-09T01:36:06.966Z,11.80
2023-02-09T01:38:09.660Z,14.30
2023-02-09T01:40:12.621Z,13.93
2023-02-09T01:42:20.319Z,13.13
2023-02-09T01:44:22.882Z,15.37
2023-02-09T01:46:28.817Z,8.50
2023-02-09T01:48:31.670Z,11.80
2023-02-09T01:50:37.607Z,12.23
2023-02-09T01:52:40.653Z,11.37
2023-02-09T01:54:49.617Z,11.73
2023-02-09T01:57:02.726Z,12.27
2023-02-09T01:59:05.713Z,12.90
2023-02-09T02:01:08.404Z,9.70
2023-02-09T02:03:20.348Z,13.77
2023-02-09T02:05:24.455Z,11.93
2023-02-09T02:07:48.028Z,14.93
2023-02-09T02:09:51.219Z,10.37
2023-02-09T02:11:53.940Z,14.10
2023-02-09T02:13:57.791Z,13.33
2023-02-09T02:16:37.760Z,12.83
2023-02-09T02:18:46.183Z,11.13
2023-02-09T02:21:20.859Z,14.00
2023-02-09T02:23:48.679Z,17.80
2023-02-09T02:26:12.248Z,12.20
2023-02-09T02:28:32.264Z,12.53
2023-02-09T02:30:39.810Z,13.67
2023-02-09T02:32:49.350Z,15.53
2023-02-09T02:35:19.017Z,14.77
2023-02-09T02:37:44.764Z,12.17
2023-02-09T02:39:59.440Z,12.87
2023-02-09T02:42:29.707Z,11.90
2023-02-09T02:44:37.811Z,11.03
2023-02-09T02:46:47.000Z,11.93
2023-02-09T02:48:57.745Z,10.53
2023-02-09T02:51:08.580Z,12.17
2023-02-09T02:53:13.862Z,14.23
2023-02-09T02:55:21.257Z,13.23
2023-02-09T02:57:31.038Z,11.43
2023-02-09T02:59:42.770Z,11.23
2023-02-09T03:01:54.880Z,11.48
2023-02-09T03:03:59.610Z,11.43
2023-02-09T03:06:05.717Z,12.63
2023-02-09T03:08:08.380Z,13.83
2023-02-09T03:10:34.827Z,15.70
2023-02-09T03:13:02.527Z,13.40
2023-02-09T03:15:19.960Z,10.80
2023-02-09T03:18:02.944Z,17.83
2023-02-09T03:20:25.625Z,11.87
2023-02-09T03:22:52.487Z,11.13
2023-02-09T03:25:24.316Z,12.63
2023-02-09T03:27:53.905Z,12.25
2023-02-09T03:30:01.063Z,13.43
2023-02-09T03:32:07.534Z,11.37
2023-02-09T03:34:10.752Z,12.27
2023-02-09T03:36:17.033Z,11.53
2023-02-09T03:38:19.717Z,10.40
2023-02-09T03:40:22.455Z,10.07
2023-02-09T03:42:25.070Z,10.17
2023-02-09T03:44:28.049Z,11.97
2023-02-09T03:46:30.659Z,12.77
2023-02-09T03:48:35.397Z,10.63
2023-02-09T03:50:38.873Z,12.17
2023-02-09T03:52:41.480Z,16.73
2023-02-09T03:54:44.509Z,14.93
2023-02-09T03:56:47.219Z,11.80
2023-02-09T03:58:49.904Z,10.93
2023-02-09T04:00:52.559Z,21.27
2023-02-09T04:02:56.198Z,15.60
2023-02-09T04:04:58.812Z,16.03
2023-02-09T04:07:01.700Z,17.63
2023-02-09T04:09:05.850Z,15.27
2023-02-09T04:11:08.658Z,14.30
2023-02-09T04:13:11.303Z,15.37
2023-02-09T04:15:13.956Z,14.83
2023-02-09T04:17:16.867Z,14.97
2023-02-09T04:19:19.666Z,11.70
2023-02-09T04:21:22.605Z,14.17
2023-02-09T04:23:25.354Z,15.10
2023-02-09T04:25:28.065Z,15.17
2023-02-09T04:27:30.724Z,22.33
2023-02-09T04:29:33.336Z,15.87
2023-02-09T04:31:36.171Z,12.73
2023-02-09T04:33:39.332Z,12.60
2023-02-09T04:35:44.292Z,16.37
2023-02-09T04:37:46.938Z,14.37
2023-02-09T04:39:49.520Z,18.27
2023-02-09T04:41:52.175Z,21.20
2023-02-09T04:43:55.029Z,12.73
2023-02-09T04:45:57.832Z,13.90
2023-02-09T04:48:00.510Z,13.53
2023-02-09T04:50:03.650Z,11.68
2023-02-09T04:52:06.348Z,17.60
2023-02-09T04:54:09.017Z,13.98
2023-02-09T04:56:15.418Z,12.80
2023-02-09T04:58:38.484Z,19.30
2023-02-09T05:00:41.161Z,19.38
2023-02-09T05:02:43.909Z,14.57
2023-02-09T05:04:46.591Z,15.27
2023-02-09T05:06:49.198Z,12.10
2023-02-09T05:08:51.968Z,12.00
2023-02-09T05:10:55.715Z,14.37
2023-02-09T05:12:58.284Z,14.20
2023-02-09T05:15:00.935Z,16.95
2023-02-09T05:17:03.596Z,14.63
2023-02-09T05:19:06.288Z,15.50
2023-02-09T05:21:09.089Z,12.20
2023-02-09T05:23:12.228Z,14.23
2023-02-09T05:25:14.817Z,14.75
2023-02-09T05:27:17.508Z,12.23
2023-02-09T05:29:22.016Z,15.37
2023-02-09T05:31:26.184Z,12.82
2023-02-09T05:33:28.913Z,13.85
2023-02-09T05:35:31.834Z,12.98
2023-02-09T05:37:34.628Z,15.70
2023-02-09T05:39:37.215Z,11.00
2023-02-09T05:41:58.600Z,13.80
2023-02-09T05:44:01.205Z,11.75
2023-02-09T05:46:06.395Z,12.20
2023-02-09T05:48:10.552Z,12.88
2023-02-09T05:50:13.192Z,10.95
2023-02-09T05:52:16.903Z,11.50
2023-02-09T05:54:19.547Z,13.77
2023-02-09T05:56:22.765Z,13.10
2023-02-09T05:58:25.374Z,15.77
2023-02-09T06:00:30.001Z,13.88
2023-02-09T06:02:32.662Z,14.80
2023-02-09T06:04:36.048Z,14.65
2023-02-09T06:06:38.806Z,21.60
2023-02-09T06:08:41.370Z,20.03
2023-02-09T06:10:44.302Z,16.52
2023-02-09T06:12:51.437Z,15.63
2023-02-09T06:14:54.193Z,16.15
2023-02-09T06:16:56.885Z,18.65
2023-02-09T06:18:59.708Z,22.48
2023-02-09T06:21:02.475Z,17.27
2023-02-09T06:23:05.234Z,15.32
2023-02-09T06:25:13.297Z,15.52
2023-02-09T06:28:19.904Z,20.60
2023-02-09T06:30:22.676Z,15.50
2023-02-09T06:32:25.300Z,18.35
2023-02-09T06:34:27.978Z,16.70
2023-02-09T06:36:30.532Z,19.92
2023-02-09T06:38:35.231Z,17.03
2023-02-09T06:40:38.101Z,17.60
2023-02-09T06:42:46.931Z,18.00
2023-02-09T06:44:49.529Z,17.42
2023-02-09T06:46:52.221Z,15.05
2023-02-09T06:48:54.902Z,17.65
2023-02-09T06:50:57.732Z,18.92
2023-02-09T06:53:00.937Z,15.50
2023-02-09T06:55:05.606Z,13.93
2023-02-09T06:57:08.325Z,15.82
2023-02-09T06:59:10.919Z,16.73
2023-02-09T07:01:18.247Z,18.27
2023-02-09T07:03:20.983Z,18.38
2023-02-09T07:05:23.683Z,15.50
2023-02-09T07:07:26.659Z,16.05
2023-02-09T07:09:29.340Z,19.33
2023-02-09T07:11:32.115Z,14.27
2023-02-09T07:13:35.266Z,14.77
2023-02-09T07:15:37.909Z,11.93
2023-02-09T07:17:40.912Z,16.40
2023-02-09T07:19:43.514Z,16.60
2023-02-09T07:21:46.073Z,13.20
2023-02-09T07:23:49.979Z,11.60
2023-02-09T07:25:53.147Z,13.35
2023-02-09T07:27:55.936Z,12.98
2023-02-09T07:30:00.795Z,10.63
2023-02-09T07:32:07.703Z,14.05
2023-02-09T07:34:10.360Z,12.65
2023-02-09T07:36:15.704Z,12.52
2023-02-09T07:38:18.448Z,11.90
2023-02-09T07:40:21.240Z,11.27
2023-02-09T07:42:23.933Z,12.88
2023-02-09T07:44:27.615Z,13.23
2023-02-09T07:46:30.279Z,12.23
2023-02-09T07:48:34.027Z,12.85
2023-02-09T07:50:36.684Z,11.20
2023-02-09T07:52:39.373Z,12.40
2023-02-09T07:54:42.011Z,16.38
2023-02-09T07:56:44.651Z,12.40
2023-02-09T07:58:47.398Z,14.30
2023-02-09T08:00:51.444Z,11.05
2023-02-09T08:02:56.485Z,11.13
2023-02-09T08:05:00.898Z,16.55
2023-02-09T08:07:04.058Z,14.25
2023-02-09T08:09:07.919Z,14.40
2023-02-09T08:11:11.672Z,12.27
2023-02-09T08:13:15.426Z,14.30
2023-02-09T08:15:21.401Z,11.80
2023-02-09T08:17:26.158Z,14.02
2023-02-09T08:19:30.171Z,13.73
2023-02-09T08:21:36.744Z,12.65
2023-02-09T08:23:41.628Z,13.52
2023-02-09T08:25:51.990Z,10.90
2023-02-09T08:27:59.023Z,13.57
2023-02-09T08:30:05.278Z,10.85
2023-02-09T08:32:13.320Z,10.57
2023-02-09T08:34:16.808Z,13.90
2023-02-09T08:36:20.938Z,12.80
2023-02-09T08:38:38.433Z,11.88
2023-02-09T08:40:46.912Z,13.20
2023-02-09T08:42:50.711Z,13.85
2023-02-09T08:44:55.338Z,12.18
2023-02-09T08:46:59.051Z,13.32
2023-02-09T08:49:02.119Z,11.18
2023-02-09T08:51:06.958Z,20.08
2023-02-09T08:53:10.568Z,16.00
2023-02-09T08:55:28.968Z,16.85
2023-02-09T08:57:44.357Z,16.00
2023-02-09T08:59:51.326Z,15.95
2023-02-09T09:01:56.018Z,20.83
2023-02-09T09:03:59.848Z,16.75
2023-02-09T09:06:07.902Z,16.05
2023-02-09T09:08:10.540Z,20.05
2023-02-09T09:10:13.911Z,25.75
2023-02-09T09:12:16.596Z,15.77
2023-02-09T09:14:19.192Z,16.40
2023-02-09T09:16:23.321Z,19.10
2023-02-09T09:18:26.493Z,17.20
2023-02-09T09:20:29.196Z,17.08
2023-02-09T09:22:31.820Z,15.80
2023-02-09T09:24:40.664Z,16.73
2023-02-09T09:26:43.601Z,17.35
2023-02-09T09:28:51.182Z,20.20
2023-02-09T09:30:53.934Z,14.75
2023-02-09T09:32:56.693Z,18.55
2023-02-09T09:34:59.991Z,17.08
2023-02-09T09:37:02.634Z,21.40
2023-02-09T09:39:05.322Z,17.00
2023-02-09T09:41:24.666Z,14.43
2023-02-09T09:43:39.872Z,18.63
2023-02-09T09:45:42.958Z,18.20
2023-02-09T09:47:45.828Z,16.95
2023-02-09T09:49:49.518Z,18.02
2023-02-09T09:52:31.822Z,15.55
2023-02-09T09:54:36.395Z,19.35
2023-02-09T09:56:39.206Z,15.38
2023-02-09T09:58:43.998Z,21.00
2023-02-09T10:00:46.933Z,15.85
2023-02-09T10:02:49.648Z,16.95
2023-02-09T10:04:52.466Z,18.23
2023-02-09T10:07:02.360Z,16.48
2023-02-09T10:09:15.233Z,16.17
2023-02-09T10:11:29.188Z,14.63
2023-02-09T10:13:40.551Z,19.23
2023-02-09T10:15:51.281Z,17.60
2023-02-09T10:17:57.641Z,18.65
2023-02-09T10:20:08.156Z,15.25
2023-02-09T10:22:13.984Z,17.60
2023-02-09T10:24:26.359Z,15.50
2023-02-09T10:26:31.967Z,15.88
2023-02-09T10:28:48.077Z,12.45
2023-02-09T10:30:57.526Z,15.68
2023-02-09T10:33:02.771Z,14.32
2023-02-09T10:35:43.127Z,14.02
2023-02-09T10:37:46.478Z,14.25
2023-02-09T10:40:01.385Z,17.27
2023-02-09T10:42:34.490Z,13.93
2023-02-09T10:44:40.229Z,13.68
2023-02-09T10:46:43.051Z,15.10
2023-02-09T10:48:47.296Z,14.63
2023-02-09T10:51:07.400Z,20.20
2023-02-09T10:53:24.654Z,14.30
2023-02-09T10:55:37.578Z,21.38
2023-02-09T10:57:40.286Z,15.77
2023-02-09T10:59:42.849Z,17.42
2023-02-09T11:01:56.817Z,14.93
2023-02-09T11:04:06.233Z,13.15
2023-02-09T11:06:20.176Z,17.42
2023-02-09T11:08:24.790Z,10.30
2023-02-09T11:10:38.290Z,12.77
2023-02-09T11:12:41.003Z,16.45
2023-02-09T11:14:43.858Z,14.35
2023-02-09T11:17:00.889Z,18.70
2023-02-09T11:19:15.403Z,13.38
2023-02-09T11:21:45.771Z,19.05
2023-02-09T11:24:07.349Z,11.38
2023-02-09T11:26:46.427Z,12.95
2023-02-09T11:29:01.599Z,11.88
2023-02-09T11:31:24.181Z,11.02
2023-02-09T11:33:42.132Z,10.05
2023-02-09T11:36:15.644Z,9.60
2023-02-09T11:38:27.722Z,9.07
2023-02-09T11:43:11.519Z,5.32
2023-02-09T11:45:20.260Z,9.05
2023-02-09T11:47:42.324Z,6.30
2023-02-09T11:49:49.366Z,7.60
2023-02-09T11:51:55.888Z,6.80
2023-02-09T11:54:04.275Z,5.90
2023-02-09T11:56:11.804Z,6.25
2023-02-09T11:58:47.675Z,4.60
2023-02-09T12:01:10.027Z,5.40
2023-02-09T12:03:17.265Z,8.25
2023-02-09T12:05:21.608Z,6.78
2023-02-09T12:07:48.951Z,7.97
2023-02-09T12:10:25.376Z,11.93
2023-02-09T12:12:49.655Z,10.52
2023-02-09T12:15:23.025Z,10.13
2023-02-09T12:17:38.583Z,13.88
2023-02-09T12:19:46.731Z,9.85
2023-02-09T12:21:49.353Z,11.48
2023-02-09T12:23:51.960Z,13.90
2023-02-09T12:25:55.804Z,10.60
2023-02-09T12:28:37.153Z,13.15
2023-02-09T12:30:42.816Z,10.55
2023-02-09T12:32:45.604Z,10.02
2023-02-09T12:34:51.355Z,11.77
2023-02-09T12:37:13.446Z,10.70
2023-02-09T12:39:23.724Z,11.10
2023-02-09T12:41:28.674Z,9.98
2023-02-09T12:43:33.456Z,12.52
2023-02-09T12:45:38.442Z,7.60
2023-02-09T12:47:57.183Z,12.25
2023-02-09T12:50:04.781Z,7.60
2023-02-09T12:52:17.399Z,7.70
2023-02-09T12:54:41.815Z,9.57
2023-02-09T12:56:44.554Z,8.23
2023-02-09T12:58:49.889Z,12.20
2023-02-09T13:00:55.434Z,7.32
2023-02-09T13:03:10.910Z,8.05
2023-02-09T13:05:22.679Z,6.10
2023-02-09T13:07:33.175Z,5.13
2023-02-09T13:09:39.512Z,6.20
2023-02-09T13:11:52.103Z,6.32
2023-02-09T13:14:04.448Z,6.45
2023-02-09T13:16:37.264Z,6.75
2023-02-09T13:18:45.903Z,8.15
2023-02-09T13:21:06.201Z,7.65
2023-02-09T13:23:34.203Z,7.88
2023-02-09T13:25:39.699Z,7.63
2023-02-09T13:27:49.940Z,7.53
2023-02-09T13:29:57.791Z,6.30
2023-02-09T13:32:28.632Z,6.20
2023-02-09T13:35:01.450Z,4.82
2023-02-09T13:37:23.289Z,8.25
2023-02-09T13:39:27.417Z,6.22
2023-02-09T13:41:38.148Z,9.70
2023-02-09T13:43:41.748Z,5.53
2023-02-09T13:45:53.381Z,8.57
2023-02-09T13:47:59.488Z,7.72
2023-02-09T13:50:03.847Z,6.97
2023-02-09T13:52:22.365Z,6.28
2023-02-09T13:54:24.924Z,6.45
2023-02-09T13:56:46.497Z,7.43
2023-02-09T13:58:49.695Z,5.85
2023-02-09T14:00:56.090Z,6.05
2023-02-09T14:03:12.488Z,6.30
2023-02-09T14:05:27.626Z,4.50
2023-02-09T14:07:35.288Z,6.38
2023-02-09T14:09:56.825Z,4.60
2023-02-09T14:12:45.718Z,5.65
2023-02-09T14:15:15.034Z,6.97
2023-02-09T14:17:28.544Z,7.90
2023-02-09T14:19:32.402Z,7.53
2023-02-09T14:21:40.654Z,6.40
2023-02-09T14:24:05.442Z,9.00
2023-02-09T14:26:24.569Z,8.10
2023-02-09T14:28:27.275Z,7.90
2023-02-09T14:30:32.911Z,11.68
2023-02-09T14:32:38.370Z,6.13
2023-02-09T14:34:41.020Z,8.30
2023-02-09T14:36:52.502Z,5.80
2023-02-09T14:39:10.922Z,9.48
2023-02-09T14:41:19.719Z,8.45
2023-02-09T14:43:27.809Z,8.02
2023-02-09T14:45:35.175Z,5.93
2023-02-09T14:47:39.692Z,7.20
2023-02-09T14:49:42.349Z,7.88
2023-02-09T14:51:45.940Z,8.30
2023-02-09T14:53:50.177Z,6.03
2023-02-09T14:55:55.178Z,6.30
2023-02-09T14:57:57.758Z,7.20
2023-02-09T15:00:00.399Z,9.50
2023-02-09T15:02:26.136Z,8.30
2023-02-09T15:04:28.740Z,9.68
2023-02-09T15:06:34.930Z,6.68
2023-02-09T15:08:39.175Z,8.68
2023-02-09T15:10:55.419Z,8.63
2023-02-09T15:12:59.210Z,6.30
2023-02-09T15:15:02.448Z,6.35
2023-02-09T15:17:14.043Z,8.88
2023-02-09T15:19:21.533Z,7.53
2023-02-09T15:21:24.291Z,6.50
2023-02-09T15:23:26.940Z,5.65
2023-02-09T15:25:29.849Z,8.40
2023-02-09T15:27:51.382Z,8.07
2023-02-09T15:29:57.907Z,6.78
2023-02-09T15:32:01.659Z,7.85
2023-02-09T15:34:05.768Z,5.68
2023-02-09T15:36:14.495Z,5.55
2023-02-09T15:38:18.484Z,5.88
2023-02-09T15:40:52.968Z,5.57
2023-02-09T15:43:14.004Z,8.40
2023-02-09T15:45:38.283Z,6.45
2023-02-09T15:47:49.814Z,4.38
2023-02-09T15:49:52.498Z,4.82
2023-02-09T15:51:55.274Z,5.22
2023-02-09T15:53:59.642Z,4.82
2023-02-09T15:56:02.524Z,5.35
2023-02-09T15:58:19.421Z,4.47
2023-02-09T16:00:27.694Z,4.63
2023-02-09T16:02:30.407Z,5.30
2023-02-09T16:04:33.049Z,4.13
2023-02-09T16:06:35.990Z,6.13
2023-02-09T16:08:38.853Z,4.85
2023-02-09T16:10:41.469Z,3.80
2023-02-09T16:12:44.109Z,3.50
2023-02-09T16:14:46.811Z,4.32
2023-02-09T16:16:49.927Z,4.40
2023-02-09T16:18:52.599Z,5.03
2023-02-09T16:20:55.317Z,9.43
2023-02-09T16:23:11.779Z,4.68
2023-02-09T16:25:24.069Z,4.93
2023-02-09T16:27:28.731Z,5.63
2023-02-09T16:29:31.355Z,4.53
2023-02-09T16:31:34.036Z,4.87
2023-02-09T16:33:38.915Z,5.63
2023-02-09T16:35:42.148Z,3.50
2023-02-09T16:37:46.920Z,4.13
2023-02-09T16:39:50.172Z,3.73
2023-02-09T16:41:54.298Z,4.82
2023-02-09T16:43:57.092Z,5.80
2023-02-09T16:46:04.494Z,5.03
2023-02-09T16:48:15.577Z,4.20
2023-02-09T16:50:35.775Z,6.87
2023-02-09T16:52:39.431Z,6.50
2023-02-09T16:54:50.444Z,8.07
2023-02-09T16:56:54.595Z,7.00
2023-02-09T16:58:57.477Z,6.60
2023-02-09T17:01:01.820Z,6.80
2023-02-09T17:03:32.149Z,6.13
2023-02-09T17:05:37.298Z,4.47
2023-02-09T17:07:53.616Z,6.40
2023-02-09T17:09:57.684Z,5.97
2023-02-09T17:12:00.283Z,5.65
2023-02-09T17:14:02.838Z,8.13
2023-02-09T17:16:07.171Z,5.82
2023-02-09T17:18:16.931Z,5.97
2023-02-09T17:20:23.259Z,8.43
2023-02-09T17:22:25.959Z,7.77
2023-02-09T17:24:28.493Z,10.23
2023-02-09T17:26:31.714Z,9.38
2023-02-09T17:28:34.660Z,7.20
2023-02-09T17:30:37.975Z,6.33
2023-02-09T17:32:40.743Z,7.13
2023-02-09T17:34:43.434Z,10.67
2023-02-09T17:36:46.256Z,11.07
2023-02-09T17:38:49.006Z,8.27
2023-02-09T17:40:53.406Z,9.68
2023-02-09T17:42:56.640Z,7.68
2023-02-09T17:44:59.290Z,8.53
2023-02-09T17:47:03.556Z,10.13
2023-02-09T17:49:06.217Z,9.30
2023-02-09T17:51:30.561Z,10.57
2023-02-09T17:53:35.114Z,8.43
2023-02-09T17:55:37.689Z,9.20
2023-02-09T17:57:41.736Z,8.93
2023-02-09T17:59:44.491Z,10.73
2023-02-09T18:01:50.490Z,8.05
2023-02-09T18:03:57.972Z,7.27
2023-02-09T18:06:03.185Z,10.93
2023-02-09T18:08:05.858Z,9.47
2023-02-09T18:10:08.471Z,8.98
2023-02-09T18:12:19.885Z,7.37
2023-02-09T18:14:24.317Z,9.88
2023-02-09T18:16:27.509Z,6.82
2023-02-09T18:18:30.268Z,4.93
2023-02-09T18:20:34.561Z,6.20
2023-02-09T18:22:37.172Z,6.57
2023-02-09T18:24:39.912Z,6.57
2023-02-09T18:26:43.234Z,8.45
2023-02-09T18:28:45.960Z,10.83
2023-02-09T18:30:48.644Z,7.37
2023-02-09T18:32:51.520Z,6.60
2023-02-09T18:34:54.175Z,5.23
2023-02-09T18:36:57.327Z,7.17
2023-02-09T18:39:00.226Z,8.60
2023-02-09T18:41:02.945Z,8.97
2023-02-09T18:43:07.192Z,5.70
2023-02-09T18:45:13.112Z,6.88
2023-02-09T18:47:16.117Z,7.53
2023-02-09T18:49:19.044Z,7.65
2023-02-09T18:51:22.151Z,9.07
2023-02-09T18:53:24.786Z,5.93
2023-02-09T18:55:30.896Z,6.45
2023-02-09T18:57:33.536Z,7.70
2023-02-09T18:59:36.417Z,7.18
2023-02-09T19:01:39.955Z,4.25
2023-02-09T19:03:42.800Z,7.95
2023-02-09T19:05:45.604Z,6.10
2023-02-09T19:07:49.433Z,6.55
2023-02-09T19:09:55.072Z,5.95
2023-02-09T19:11:57.795Z,9.13
2023-02-09T19:14:18.895Z,7.10
2023-02-09T19:16:21.599Z,6.72
2023-02-09T19:18:24.165Z,8.50
2023-02-09T19:20:29.363Z,11.93
2023-02-09T19:22:32.483Z,10.65
2023-02-09T19:24:35.199Z,8.20
2023-02-09T19:26:37.902Z,8.95
2023-02-09T19:28:40.584Z,10.20
2023-02-09T19:30:43.557Z,9.37
2023-02-09T19:32:46.172Z,8.07
2023-02-09T19:34:50.037Z,8.10
2023-02-09T19:36:52.937Z,9.13
2023-02-09T19:38:56.528Z,9.43
2023-02-09T19:41:10.388Z,9.83
2023-02-09T19:43:13.581Z,12.07
2023-02-09T19:45:16.506Z,10.33
2023-02-09T19:47:25.782Z,11.80
2023-02-09T19:49:29.029Z,10.17
2023-02-09T19:51:31.602Z,12.53
2023-02-09T19:53:34.815Z,11.63
2023-02-09T19:55:37.364Z,12.33
2023-02-09T19:57:40.028Z,11.90
2023-02-09T19:59:42.579Z,9.47
2023-02-09T20:01:45.244Z,11.60
2023-02-09T20:03:49.685Z,12.30
2023-02-09T20:05:52.420Z,10.93
2023-02-09T20:07:55.062Z,12.23
2023-02-09T20:09:58.280Z,11.90
2023-02-09T20:12:01.063Z,11.47
2023-02-09T20:14:05.631Z,9.43
2023-02-09T20:16:10.150Z,14.27
2023-02-09T20:18:14.869Z,10.57
2023-02-09T20:20:19.926Z,13.13
2023-02-09T20:22:22.616Z,12.50
2023-02-09T20:24:25.431Z,14.07
2023-02-09T20:26:30.475Z,13.07
2023-02-09T20:28:33.127Z,13.73
2023-02-09T20:30:35.889Z,15.35
2023-02-09T20:32:38.699Z,11.07
2023-02-09T20:34:42.161Z,11.20
2023-02-09T20:36:46.944Z,13.23
2023-02-09T20:38:49.579Z,14.37
2023-02-09T20:40:52.262Z,11.93
2023-02-09T20:43:13.465Z,10.82
2023-02-09T20:45:36.174Z,10.60
2023-02-09T20:47:38.780Z,12.90
2023-02-09T20:49:41.402Z,15.90
2023-02-09T20:51:45.995Z,11.37
2023-02-09T20:53:48.645Z,12.68
2023-02-09T20:55:51.303Z,14.23
2023-02-09T20:57:53.905Z,10.23
2023-02-09T21:00:01.009Z,12.73
2023-02-09T21:02:03.790Z,12.50
2023-02-09T21:04:07.525Z,13.30
2023-02-09T21:06:10.290Z,12.20
2023-02-09T21:08:12.904Z,14.50
2023-02-09T21:10:16.229Z,13.50
2023-02-09T21:12:19.597Z,15.00
2023-02-09T21:14:32.323Z,9.37
2023-02-09T21:16:42.790Z,11.83
2023-02-09T21:18:45.976Z,11.57
2023-02-09T21:20:49.311Z,11.87
2023-02-09T21:22:52.239Z,9.73
2023-02-09T21:24:54.813Z,10.43
2023-02-09T21:26:57.499Z,9.33
2023-02-09T21:29:00.112Z,13.60
2023-02-09T21:31:02.954Z,13.33
2023-02-09T21:33:05.608Z,10.07
2023-02-09T21:35:10.491Z,10.40
2023-02-09T21:37:14.155Z,12.30
2023-02-09T21:39:16.811Z,10.77
2023-02-09T21:41:40.580Z,13.70
2023-02-09T21:43:43.447Z,12.87
2023-02-09T21:45:46.089Z,13.07
2023-02-09T21:47:48.733Z,12.33
2023-02-09T21:49:51.479Z,12.37
2023-02-09T21:51:54.127Z,9.10
2023-02-09T21:53:57.430Z,11.00
2023-02-09T21:56:00.058Z,10.97
2023-02-09T21:58:02.690Z,11.60
2023-02-09T22:00:09.100Z,11.97
2023-02-09T22:02:16.339Z,10.87
2023-02-09T22:04:19.006Z,11.67
2023-02-09T22:06:21.553Z,11.77
2023-02-09T22:08:24.212Z,10.07
2023-02-09T22:10:26.776Z,11.70
2023-02-09T22:12:29.530Z,13.07
2023-02-09T22:14:32.744Z,13.60
2023-02-09T22:16:35.380Z,11.40
2023-02-09T22:18:38.034Z,11.63
2023-02-09T22:20:44.446Z,13.43
2023-02-09T22:22:47.203Z,9.87
2023-02-09T22:24:49.842Z,12.30
2023-02-09T22:26:52.739Z,10.00
2023-02-09T22:28:55.347Z,9.00
2023-02-09T22:30:57.998Z,10.47
2023-02-09T22:33:01.714Z,12.53
2023-02-09T22:35:04.478Z,11.73
2023-02-09T22:37:07.212Z,12.27
2023-02-09T22:39:10.206Z,10.90
2023-02-09T22:41:24.299Z,11.00
2023-02-09T22:43:27.279Z,9.83
2023-02-09T22:45:29.933Z,8.20
2023-02-09T22:47:33.266Z,12.80
2023-02-09T22:49:35.848Z,14.37
2023-02-09T22:51:38.490Z,11.27
2023-02-09T22:53:41.129Z,11.50
2023-02-09T22:55:46.530Z,9.77
2023-02-09T22:57:49.269Z,13.37
2023-02-09T22:59:51.970Z,14.33
2023-02-09T23:01:54.705Z,11.27
2023-02-09T23:03:57.993Z,11.27
2023-02-09T23:06:05.630Z,9.93
2023-02-09T23:08:08.223Z,12.80
2023-02-09T23:10:10.921Z,14.90
2023-02-09T23:12:13.645Z,12.07
2023-02-09T23:14:16.444Z,13.73
2023-02-09T23:16:22.172Z,13.47
2023-02-09T23:18:24.799Z,10.53
2023-02-09T23:20:27.417Z,10.02
2023-02-09T23:22:30.008Z,10.50
2023-02-09T23:24:32.938Z,12.70
2023-02-09T23:26:36.120Z,13.40
2023-02-09T23:28:38.803Z,11.50
2023-02-09T23:30:41.490Z,14.60
2023-02-09T23:32:44.146Z,12.77
2023-02-09T23:34:46.781Z,10.10
2023-02-09T23:36:49.431Z,14.27
2023-02-09T23:38:54.909Z,11.70
2023-02-09T23:40:57.665Z,15.30
2023-02-09T23:43:00.482Z,9.00
2023-02-09T23:45:03.272Z,11.77
2023-02-09T23:47:07.374Z,15.67
2023-02-09T23:49:10.308Z,9.90
2023-02-09T23:51:19.352Z,12.27
2023-02-09T23:53:22.038Z,12.47
2023-02-09T23:55:24.665Z,10.53
2023-02-09T23:57:27.266Z,12.40
2023-02-09T23:59:29.967Z,10.00
